createdAt,value
2018-01-02T00:02:14.673Z,52.52
2018-01-02T00:04:41.012Z,52.73
2018-01-02T00:07:07.272Z,53.25
2018-01-02T00:09:33.572Z,53.61
2018-01-02T00:11:59.808Z,54.81
2018-01-02T00:14:26.136Z,55.40
2018-01-02T00:16:52.470Z,56.08
2018-01-02T00:19:18.716Z,56.28
2018-01-02T00:21:44.982Z,57.05
2018-01-02T00:24:11.226Z,56.90
2018-01-02T00:26:37.502Z,56.87
2018-01-02T00:29:10.841Z,56.79
2018-01-02T00:31:37.167Z,56.71
2018-01-02T00:34:03.424Z,56.51
2018-01-02T00:36:29.691Z,56.22
2018-01-02T00:38:56.019Z,56.79
2018-01-02T00:41:22.316Z,57.09
2018-01-02T00:43:48.599Z,56.81
2018-01-02T00:46:15.624Z,57.21
2018-01-02T00:48:41.918Z,57.42
2018-01-02T00:51:08.139Z,57.38
2018-01-02T00:53:34.448Z,57.77
2018-01-02T00:56:01.547Z,57.21
2018-01-02T00:58:27.852Z,57.73
2018-01-02T01:00:54.142Z,58.39
2018-01-02T01:03:21.192Z,58.83
2018-01-02T01:05:47.489Z,59.19
2018-01-02T01:08:13.744Z,59.11
2018-01-02T01:10:40.005Z,59.84
2018-01-02T01:13:06.279Z,60.11
2018-01-02T01:15:32.654Z,60.53
2018-01-02T01:17:59.694Z,60.73
2018-01-02T01:20:26.747Z,61.36
2018-01-02T01:22:53.758Z,62.26
2018-01-02T01:25:20.055Z,63.36
2018-01-02T01:27:46.326Z,63.22
2018-01-02T01:30:12.581Z,63.29
2018-01-02T01:32:39.611Z,63.79
2018-01-02T01:35:05.843Z,64.73
2018-01-02T01:37:32.123Z,65.49
2018-01-02T01:39:58.403Z,65.60
2018-01-02T01:42:24.677Z,65.16
2018-01-02T01:44:50.968Z,65.20
2018-01-02T01:47:17.958Z,65.27
2018-01-02T01:49:44.364Z,65.17
2018-01-02T01:52:11.357Z,66.01
2018-01-02T01:54:37.678Z,65.38
2018-01-02T01:57:04.096Z,65.39
2018-01-02T01:59:30.332Z,64.44
2018-01-02T02:01:56.622Z,65.03
2018-01-02T02:04:23.609Z,64.68
2018-01-02T02:06:49.939Z,64.71
2018-01-02T02:09:16.268Z,64.56
2018-01-02T02:11:42.510Z,64.05
2018-01-02T02:14:08.829Z,62.99
2018-01-02T02:16:35.068Z,63.02
2018-01-02T02:19:01.343Z,62.98
2018-01-02T02:21:27.606Z,62.53
2018-01-02T02:23:53.878Z,62.92
2018-01-02T02:26:20.155Z,62.55
2018-01-02T02:28:47.139Z,61.83
2018-01-02T02:31:13.429Z,62.52
2018-01-02T02:33:40.393Z,62.10
2018-01-02T02:36:06.638Z,62.21
2018-01-02T02:38:32.982Z,62.12
2018-01-02T02:41:07.402Z,61.99
2018-01-02T02:43:33.701Z,62.59
2018-01-02T02:45:59.923Z,62.51
2018-01-02T02:48:26.171Z,62.19
2018-01-02T02:50:52.461Z,62.13
2018-01-02T02:53:19.458Z,62.53
2018-01-02T02:55:45.743Z,62.49
2018-01-02T02:58:11.966Z,62.26
2018-01-02T03:00:38.991Z,62.12
2018-01-02T03:03:05.291Z,61.40
2018-01-02T03:05:31.591Z,61.91
2018-01-02T03:07:58.634Z,62.16
2018-01-02T03:10:25.679Z,62.58
2018-01-02T03:12:52.732Z,61.92
2018-01-02T03:15:19.728Z,61.56
2018-01-02T03:17:46.046Z,60.85
2018-01-02T03:20:12.300Z,61.04
2018-01-02T03:22:38.596Z,61.16
2018-01-02T03:25:04.868Z,60.61
2018-01-02T03:27:32.054Z,59.94
2018-01-02T03:29:59.088Z,60.18
2018-01-02T03:32:25.368Z,60.11
2018-01-02T03:34:52.447Z,60.49
2018-01-02T03:37:18.681Z,61.26
2018-01-02T03:39:44.978Z,61.55
2018-01-02T03:42:11.241Z,61.09
2018-01-02T03:44:37.475Z,61.81
2018-01-02T03:47:03.721Z,62.38
2018-01-02T03:49:30.699Z,62.60
2018-01-02T03:51:56.985Z,63.28
2018-01-02T03:54:23.219Z,63.62
2018-01-02T03:56:50.207Z,63.83
2018-01-02T03:59:16.443Z,63.82
2018-01-02T04:01:42.771Z,64.28
2018-01-02T04:04:09.065Z,64.15
2018-01-02T04:06:36.086Z,64.16
2018-01-02T04:09:02.382Z,64.13
2018-01-02T04:11:28.626Z,63.92
2018-01-02T04:13:54.874Z,64.12
2018-01-02T04:16:21.132Z,64.30
2018-01-02T04:18:48.136Z,64.10
2018-01-02T04:21:14.438Z,64.01
2018-01-02T04:23:40.675Z,64.61
2018-01-02T04:26:06.938Z,64.62
2018-01-02T04:28:33.202Z,65.21
2018-01-02T04:31:01.124Z,65.34
2018-01-02T04:33:27.376Z,65.55
2018-01-02T04:35:53.682Z,65.55
2018-01-02T04:38:19.937Z,65.35
2018-01-02T04:40:46.232Z,65.04
2018-01-02T04:43:12.489Z,65.03
2018-01-02T04:45:38.762Z,65.58
2018-01-02T04:48:05.007Z,65.50
2018-01-02T04:50:31.251Z,65.48
2018-01-02T04:52:57.511Z,65.75
2018-01-02T04:55:24.495Z,65.76
2018-01-02T04:57:50.707Z,65.55
2018-01-02T05:00:17.703Z,65.28
2018-01-02T05:02:43.967Z,65.28
2018-01-02T05:05:10.252Z,65.27
2018-01-02T05:07:37.308Z,65.12
2018-01-02T05:10:03.572Z,64.96
2018-01-02T05:12:29.854Z,64.80
2018-01-02T05:14:56.120Z,64.35
2018-01-02T05:17:22.369Z,64.43
2018-01-02T05:19:49.404Z,64.26
2018-01-02T05:22:15.664Z,64.38
2018-01-02T05:24:42.678Z,64.14
2018-01-02T05:27:08.918Z,63.56
2018-01-02T05:29:38.762Z,63.18
2018-01-02T05:32:05.051Z,64.70
2018-01-02T05:34:31.291Z,64.64
2018-01-02T05:36:58.352Z,64.12
2018-01-02T05:39:25.367Z,64.17
2018-01-02T05:41:51.617Z,64.22
2018-01-02T05:44:17.923Z,64.50
2018-01-02T05:46:44.266Z,65.01
2018-01-02T05:49:10.594Z,65.25
2018-01-02T05:51:36.870Z,64.45
2018-01-02T05:54:04.246Z,63.57
2018-01-02T05:56:30.504Z,63.96
2018-01-02T05:58:56.772Z,63.29
2018-01-02T06:01:23.836Z,63.27
2018-01-02T06:03:50.082Z,64.34
2018-01-02T06:06:16.369Z,64.05
2018-01-02T06:08:43.332Z,64.58
2018-01-02T06:11:09.612Z,65.18
2018-01-02T06:13:35.840Z,65.07
2018-01-02T06:16:02.084Z,65.22
2018-01-02T06:18:28.322Z,65.19
2018-01-02T06:20:54.558Z,66.32
2018-01-02T06:23:21.658Z,66.89
2018-01-02T06:25:47.937Z,67.75
2018-01-02T06:28:15.021Z,67.48
2018-01-02T06:30:41.263Z,68.26
2018-01-02T06:33:07.511Z,68.62
2018-01-02T06:35:33.769Z,67.88
2018-01-02T06:37:59.987Z,67.65
2018-01-02T06:40:26.268Z,67.04
2018-01-02T06:42:52.493Z,68.09
2018-01-02T06:45:18.771Z,67.31
2018-01-02T06:47:45.019Z,67.70
2018-01-02T06:50:12.511Z,67.47
2018-01-02T06:52:38.784Z,66.90
2018-01-02T06:55:05.059Z,67.61
2018-01-02T06:57:31.377Z,66.63
2018-01-02T06:59:58.384Z,66.18
2018-01-02T07:02:24.701Z,66.49
2018-01-02T07:04:50.926Z,67.13
2018-01-02T07:07:17.228Z,68.31
2018-01-02T07:09:43.524Z,68.74
2018-01-02T07:12:09.818Z,69.87
2018-01-02T07:14:36.068Z,71.42
2018-01-02T07:17:02.405Z,71.50
2018-01-02T07:19:28.684Z,72.05
2018-01-02T07:21:54.976Z,71.86
2018-01-02T07:24:22.030Z,72.52
2018-01-02T07:26:49.042Z,71.83
2018-01-02T07:29:15.305Z,71.87
2018-01-02T07:31:41.573Z,72.21
2018-01-02T07:34:07.871Z,72.49
2018-01-02T07:36:34.823Z,72.74
2018-01-02T07:39:01.831Z,73.31
2018-01-02T07:41:28.063Z,72.93
2018-01-02T07:43:54.309Z,72.59
2018-01-02T07:46:21.471Z,71.93
2018-01-02T07:48:47.788Z,72.11
2018-01-02T07:51:14.049Z,71.60
2018-01-02T07:53:40.355Z,71.29
2018-01-02T07:56:06.647Z,71.99
2018-01-02T07:58:32.906Z,70.22
2018-01-02T08:01:00.246Z,71.61
2018-01-02T08:03:26.499Z,71.09
2018-01-02T08:05:54.250Z,70.60
2018-01-02T08:08:20.562Z,71.17
2018-01-02T08:10:46.866Z,70.67
2018-01-02T08:13:13.122Z,70.16
2018-01-02T08:15:39.412Z,69.87
2018-01-02T08:18:05.664Z,70.40
2018-01-02T08:20:32.014Z,69.44
2018-01-02T08:22:58.248Z,68.71
2018-01-02T08:25:24.498Z,69.78
2018-01-02T08:27:50.761Z,69.35
2018-01-02T08:30:17.051Z,71.19
2018-01-02T08:32:43.281Z,71.76
2018-01-02T08:35:09.621Z,72.97
2018-01-02T08:37:36.596Z,72.17
2018-01-02T08:40:02.941Z,72.90
2018-01-02T08:42:29.197Z,73.05
2018-01-02T08:44:55.443Z,73.31
2018-01-02T08:47:21.941Z,72.38
2018-01-02T08:49:48.278Z,72.30
2018-01-02T08:55:11.045Z,73.22
2018-01-02T08:57:37.315Z,72.82
2018-01-02T09:00:03.600Z,72.52
2018-01-02T09:02:29.844Z,73.27
2018-01-02T09:04:56.148Z,73.61
2018-01-02T09:07:22.382Z,73.22
2018-01-02T09:09:48.692Z,73.00
2018-01-02T09:12:22.030Z,72.93
2018-01-02T09:14:48.283Z,73.41
2018-01-02T09:17:14.538Z,73.36
2018-01-02T09:19:40.819Z,73.81
2018-01-02T09:22:11.866Z,72.72
2018-01-02T09:24:38.139Z,71.87
2018-01-02T09:27:07.307Z,71.99
2018-01-02T09:29:34.835Z,71.66
2018-01-02T09:32:01.169Z,71.67
2018-01-02T09:34:27.431Z,71.55
2018-01-02T09:36:53.683Z,72.14
2018-01-02T09:39:20.740Z,72.75
2018-01-02T09:41:47.732Z,72.38
2018-01-02T09:44:14.000Z,72.05
2018-01-02T09:46:40.282Z,72.06
2018-01-02T09:49:06.578Z,71.58
2018-01-02T09:51:33.600Z,71.20
2018-01-02T09:53:59.905Z,71.16
2018-01-02T09:56:26.170Z,71.63
2018-01-02T09:58:52.444Z,72.14
2018-01-02T10:01:18.670Z,71.45
2018-01-02T10:03:44.938Z,72.15
2018-01-02T10:06:11.218Z,70.85
2018-01-02T10:08:37.461Z,71.16
2018-01-02T10:11:10.724Z,71.79
2018-01-02T10:13:37.703Z,71.30
2018-01-02T10:16:03.962Z,71.51
2018-01-02T10:18:30.178Z,71.86
2018-01-02T10:20:56.472Z,71.42
2018-01-02T10:23:23.466Z,70.30
2018-01-02T10:25:49.760Z,70.37
2018-01-02T10:28:16.058Z,69.95
2018-01-02T10:30:42.322Z,69.73
2018-01-02T10:33:08.549Z,69.59
2018-01-02T10:35:34.821Z,69.98
2018-01-02T10:38:01.111Z,70.79
2018-01-02T10:40:27.452Z,70.33
2018-01-02T10:42:53.697Z,70.42
2018-01-02T10:45:19.938Z,69.46
2018-01-02T10:47:46.226Z,70.16
2018-01-02T10:50:14.517Z,71.63
2018-01-02T10:52:40.773Z,71.89
2018-01-02T10:55:06.999Z,71.93
2018-01-02T10:57:33.306Z,70.66
2018-01-02T10:59:59.527Z,72.33
2018-01-02T11:02:25.823Z,71.54
2018-01-02T11:04:52.081Z,72.65
2018-01-02T11:07:18.345Z,71.78
2018-01-02T11:09:44.619Z,70.76
2018-01-02T11:12:14.652Z,70.44
2018-01-02T11:14:41.726Z,70.09
2018-01-02T11:17:08.008Z,69.79
2018-01-02T11:19:34.303Z,69.83
2018-01-02T11:22:00.604Z,69.53
2018-01-02T11:24:26.863Z,69.26
2018-01-02T11:26:53.144Z,68.70
2018-01-02T11:29:20.376Z,70.25
2018-01-02T11:31:46.643Z,69.12
2018-01-02T11:34:12.939Z,70.05
2018-01-02T11:36:39.202Z,71.38
2018-01-02T11:39:05.559Z,71.52
2018-01-02T11:41:31.904Z,71.13
2018-01-02T11:43:58.194Z,70.44
2018-01-02T11:46:25.187Z,69.74
2018-01-02T11:48:51.451Z,70.20
2018-01-02T11:51:18.507Z,69.82
2018-01-02T11:53:45.564Z,69.19
2018-01-02T11:56:12.555Z,69.61
2018-01-02T11:58:38.882Z,68.05
2018-01-02T12:01:05.296Z,65.71
2018-01-02T12:03:31.678Z,65.58
2018-01-02T12:05:58.895Z,66.17
2018-01-02T12:08:25.292Z,65.78
2018-01-02T12:10:51.612Z,64.90
2018-01-02T12:13:18.700Z,64.67
2018-01-02T12:15:45.002Z,66.43
2018-01-02T12:18:12.040Z,66.81
2018-01-02T12:20:39.092Z,65.95
2018-01-02T12:23:06.123Z,66.42
2018-01-02T12:25:33.474Z,66.30
2018-01-02T12:28:00.473Z,65.56
2018-01-02T12:30:26.778Z,65.36
2018-01-02T12:32:53.043Z,65.98
2018-01-02T12:35:19.411Z,65.83
2018-01-02T12:37:45.651Z,65.54
2018-01-02T12:40:12.175Z,65.25
2018-01-02T12:42:38.518Z,66.19
2018-01-02T12:45:04.891Z,66.51
2018-01-02T12:47:31.151Z,66.78
2018-01-02T12:49:57.425Z,66.78
2018-01-02T12:52:24.480Z,67.14
2018-01-02T12:54:50.740Z,66.83
2018-01-02T12:57:17.012Z,66.36
2018-01-02T12:59:44.822Z,66.27
2018-01-02T13:02:11.064Z,65.85
2018-01-02T13:04:37.388Z,65.67
2018-01-02T13:07:03.672Z,65.87
2018-01-02T13:09:29.986Z,65.88
2018-01-02T13:11:56.340Z,65.13
2018-01-02T13:14:23.602Z,66.03
2018-01-02T13:16:50.643Z,67.33
2018-01-02T13:19:17.673Z,68.04
2018-01-02T13:21:44.697Z,67.00
2018-01-02T13:24:10.982Z,66.44
2018-01-02T13:26:37.343Z,66.28
2018-01-02T13:29:03.613Z,67.06
2018-01-02T13:31:29.955Z,65.84
2018-01-02T13:33:56.984Z,66.51
2018-01-02T13:36:23.263Z,67.00
2018-01-02T13:38:49.525Z,66.69
2018-01-02T13:41:15.850Z,66.25
2018-01-02T13:43:42.136Z,66.16
2018-01-02T13:46:09.163Z,66.20
2018-01-02T13:48:35.433Z,67.12
2018-01-02T13:51:01.760Z,67.53
2018-01-02T13:53:28.053Z,66.15
2018-01-02T13:55:54.536Z,64.79
2018-01-02T13:58:20.845Z,66.17
2018-01-02T14:00:47.891Z,67.07
2018-01-02T14:03:14.955Z,67.08
2018-01-02T14:05:41.301Z,67.12
2018-01-02T14:08:07.585Z,66.85
2018-01-02T14:10:33.911Z,66.09
2018-01-02T14:13:00.212Z,65.29
2018-01-02T14:15:26.459Z,66.04
2018-01-02T14:17:52.771Z,66.13
2018-01-02T14:20:19.066Z,66.42
2018-01-02T14:22:45.335Z,66.29
2018-01-02T14:25:11.646Z,65.67
2018-01-02T14:27:37.893Z,65.57
2018-01-02T14:30:04.175Z,65.99
2018-01-02T14:32:31.213Z,66.86
2018-01-02T14:34:58.203Z,67.06
2018-01-02T14:37:24.455Z,66.41
2018-01-02T14:39:50.716Z,66.07
2018-01-02T14:42:17.717Z,65.55
2018-01-02T14:44:43.970Z,65.54
2018-01-02T14:47:10.344Z,65.24
2018-01-02T14:49:36.579Z,66.23
2018-01-02T14:52:02.882Z,66.47
2018-01-02T14:54:29.192Z,65.67
2018-01-02T14:56:55.485Z,65.86
2018-01-02T14:59:21.748Z,67.07
2018-01-02T15:01:48.009Z,68.00
2018-01-02T15:04:15.008Z,67.03
2018-01-02T15:06:41.278Z,67.27
2018-01-02T15:09:07.605Z,67.92
2018-01-02T15:11:34.642Z,67.20
2018-01-02T15:14:02.400Z,66.79
2018-01-02T15:16:28.666Z,66.99
2018-01-02T15:18:55.689Z,66.88
2018-01-02T15:21:22.001Z,67.72
2018-01-02T15:23:48.339Z,68.01
2018-01-02T15:26:14.733Z,68.00
2018-01-02T15:28:41.033Z,68.02
2018-01-02T15:31:08.071Z,69.06
2018-01-02T15:33:34.343Z,69.06
2018-01-02T15:36:00.688Z,68.92
2018-01-02T15:38:26.956Z,68.86
2018-01-02T15:41:00.326Z,68.68
2018-01-02T15:43:26.589Z,68.06
2018-01-02T15:45:53.605Z,67.69
2018-01-02T15:48:19.903Z,68.01
2018-01-02T15:50:46.157Z,68.03
2018-01-02T15:53:12.458Z,67.83
2018-01-02T15:55:38.725Z,67.09
2018-01-02T15:58:05.105Z,67.66
2018-01-02T16:00:32.197Z,67.19
2018-01-02T16:02:58.456Z,67.23
2018-01-02T16:05:24.865Z,67.86
2018-01-02T16:07:51.135Z,67.82
2018-01-02T16:10:18.233Z,67.51
2018-01-02T16:12:44.534Z,67.31
2018-01-02T16:15:10.839Z,66.90
2018-01-02T16:17:37.105Z,66.68
2018-01-02T16:20:03.411Z,66.68
2018-01-02T16:22:30.414Z,66.78
2018-01-02T16:24:56.682Z,66.70
2018-01-02T16:27:23.708Z,67.09
2018-01-02T16:29:49.968Z,67.09
2018-01-02T16:32:17.027Z,66.53
2018-01-02T16:34:43.270Z,66.62
2018-01-02T16:37:09.556Z,67.09
2018-01-02T16:39:35.816Z,67.62
2018-01-02T16:42:02.132Z,68.03
2018-01-02T16:44:29.155Z,67.91
2018-01-02T16:46:55.491Z,68.09
2018-01-02T16:49:21.752Z,68.65
2018-01-02T16:51:48.074Z,69.11
2018-01-02T16:54:15.119Z,69.00
2018-01-02T16:56:42.179Z,69.79
2018-01-02T16:59:08.496Z,70.04
2018-01-02T17:01:35.484Z,70.40
2018-01-02T17:04:01.788Z,70.46
2018-01-02T17:06:28.038Z,70.86
2018-01-02T17:08:54.352Z,71.26
2018-01-02T17:11:20.640Z,71.20
2018-01-02T17:13:47.688Z,71.14
2018-01-02T17:16:13.965Z,71.47
2018-01-02T17:18:41.138Z,71.21
2018-01-02T17:21:07.411Z,71.20
2018-01-02T17:23:33.726Z,71.53
2018-01-02T17:26:00.035Z,71.78
2018-01-02T17:28:26.314Z,71.28
2018-01-02T17:30:53.373Z,70.81
2018-01-02T17:33:20.399Z,70.94
2018-01-02T17:35:46.701Z,72.25
2018-01-02T17:38:12.995Z,74.55
2018-01-02T17:40:39.301Z,74.27
2018-01-02T17:43:06.303Z,74.69
2018-01-02T17:45:32.593Z,75.11
2018-01-02T17:47:58.837Z,74.71
2018-01-02T17:50:25.130Z,74.56
2018-01-02T17:52:51.409Z,74.75
2018-01-02T17:55:17.691Z,74.80
2018-01-02T17:57:44.781Z,74.90
2018-01-02T18:00:11.177Z,74.25
2018-01-02T18:02:38.271Z,74.30
2018-01-02T18:05:04.544Z,73.74
2018-01-02T18:07:30.812Z,73.02
2018-01-02T18:09:57.176Z,73.10
2018-01-02T18:12:23.447Z,73.24
2018-01-02T18:14:50.496Z,73.88
2018-01-02T18:17:17.529Z,74.07
2018-01-02T18:19:43.841Z,73.99
2018-01-02T18:22:10.106Z,73.83
2018-01-02T18:24:37.157Z,73.37
2018-01-02T18:27:04.151Z,73.49
2018-01-02T18:29:30.414Z,73.82
2018-01-02T18:31:56.675Z,74.25
2018-01-02T18:34:23.012Z,74.59
2018-01-02T18:36:50.220Z,74.18
2018-01-02T18:39:16.672Z,73.97
2018-01-02T18:41:43.803Z,74.06
2018-01-02T18:44:10.058Z,73.55
2018-01-02T18:46:37.323Z,73.52
2018-01-02T18:49:04.376Z,73.81
2018-01-02T18:51:30.717Z,73.06
2018-01-02T18:53:57.002Z,72.58
2018-01-02T18:56:23.346Z,72.15
2018-01-02T18:58:49.606Z,71.80
2018-01-02T19:01:15.888Z,71.96
2018-01-02T19:03:42.260Z,71.76
2018-01-02T19:06:08.593Z,71.72
2018-01-02T19:08:34.857Z,72.02
2018-01-02T19:11:01.171Z,71.36
2018-01-02T19:13:27.488Z,71.17
2018-01-02T19:15:53.923Z,70.67
2018-01-02T19:18:20.237Z,69.87
2018-01-02T19:20:47.270Z,69.80
2018-01-02T19:23:14.313Z,69.63
2018-01-02T19:25:40.717Z,69.92
2018-01-02T19:28:07.047Z,69.80
2018-01-02T19:30:33.345Z,69.67
2018-01-02T19:33:00.255Z,69.63
2018-01-02T19:35:27.391Z,69.44
2018-01-02T19:37:53.716Z,68.98
2018-01-02T19:40:20.059Z,68.92
2018-01-02T19:42:46.433Z,69.42
2018-01-02T19:45:12.816Z,69.08
2018-01-02T19:47:39.198Z,68.64
2018-01-02T19:50:05.510Z,68.22
2018-01-02T19:52:32.560Z,68.41
2018-01-02T19:55:00.172Z,68.73
2018-01-02T19:57:26.514Z,69.15
2018-01-02T19:59:52.904Z,68.75
2018-01-02T20:02:20.412Z,68.47
2018-01-02T20:04:46.829Z,69.05
2018-01-02T20:07:14.323Z,68.58
2018-01-02T20:09:40.661Z,68.37
2018-01-02T20:12:07.791Z,67.88
2018-01-02T20:14:34.225Z,67.85
2018-01-02T20:17:00.527Z,67.57
2018-01-02T20:19:27.414Z,67.61
2018-01-02T20:21:54.788Z,67.19
2018-01-02T20:24:21.189Z,66.96
2018-01-02T20:26:47.495Z,66.39
2018-01-02T20:29:13.898Z,66.47
2018-01-02T20:31:40.218Z,66.28
2018-01-02T20:34:06.576Z,66.92
2018-01-02T20:36:32.886Z,67.22
2018-01-02T20:38:59.642Z,67.58
2018-01-02T20:41:26.264Z,67.61
2018-01-02T20:43:52.584Z,67.63
2018-01-02T20:46:19.680Z,67.77
2018-01-02T20:48:45.986Z,68.15
2018-01-02T20:51:12.264Z,68.18
2018-01-02T20:53:39.406Z,68.05
2018-01-02T20:56:05.823Z,68.16
2018-01-02T20:58:32.163Z,68.58
2018-01-02T21:00:59.031Z,68.86
2018-01-02T21:03:25.661Z,69.15
2018-01-02T21:05:51.969Z,69.18
2018-01-02T21:08:18.375Z,69.36
2018-01-02T21:10:44.885Z,69.63
2018-01-02T21:13:12.069Z,69.77
2018-01-02T21:15:38.399Z,70.07
2018-01-02T21:18:05.653Z,70.17
2018-01-02T21:20:31.984Z,70.14
2018-01-02T21:22:58.388Z,70.21
2018-01-02T21:25:25.492Z,70.47
2018-01-02T21:27:51.769Z,70.26
2018-01-02T21:30:18.865Z,70.36
2018-01-02T21:32:45.171Z,70.46
2018-01-02T21:35:11.527Z,70.30
2018-01-02T21:37:37.840Z,70.43
2018-01-02T21:40:04.113Z,70.60
2018-01-02T21:42:30.485Z,70.64
2018-01-02T21:44:57.846Z,70.68
2018-01-02T21:47:24.152Z,70.69
2018-01-02T21:49:52.073Z,70.37
2018-01-02T21:52:18.387Z,69.92
2018-01-02T21:54:44.684Z,69.73
2018-01-02T21:57:11.754Z,69.30
2018-01-02T21:59:38.065Z,69.01
2018-01-02T22:02:05.196Z,68.78
2018-01-02T22:04:31.491Z,68.22
2018-01-02T22:06:57.778Z,68.24
2018-01-02T22:09:24.073Z,68.38
2018-01-02T22:11:50.389Z,68.71
2018-01-02T22:14:16.835Z,68.79
2018-01-02T22:16:43.084Z,68.75
2018-01-02T22:19:09.372Z,69.09
2018-01-02T22:21:35.683Z,69.10
2018-01-02T22:24:02.106Z,69.13
2018-01-02T22:26:29.524Z,69.04
2018-01-02T22:28:56.012Z,69.15
2018-01-02T22:31:22.394Z,69.01
2018-01-02T22:33:48.664Z,68.87
2018-01-02T22:36:14.910Z,68.70
2018-01-02T22:38:41.223Z,68.62
2018-01-02T22:41:07.496Z,68.83
2018-01-02T22:43:34.193Z,68.73
2018-01-02T22:46:00.480Z,68.83
2018-01-02T22:48:26.766Z,68.79
2018-01-02T22:50:53.020Z,68.89
2018-01-02T22:53:19.409Z,69.00
2018-01-02T22:55:45.639Z,68.68
2018-01-02T22:58:12.022Z,68.69
2018-01-02T23:00:38.356Z,68.42
2018-01-02T23:03:04.635Z,68.43
2018-01-02T23:05:30.963Z,68.09
2018-01-02T23:07:58.403Z,67.89
2018-01-02T23:10:25.411Z,68.27
2018-01-02T23:12:51.715Z,68.34
2018-01-02T23:15:18.011Z,68.34
2018-01-02T23:17:45.050Z,68.38
2018-01-02T23:20:11.324Z,68.10
2018-01-02T23:22:37.630Z,68.07
2018-01-02T23:25:04.657Z,68.05
2018-01-02T23:27:32.454Z,68.21
2018-01-02T23:29:58.762Z,68.77
2018-01-02T23:32:25.803Z,68.54
2018-01-02T23:34:52.028Z,68.63
2018-01-02T23:37:18.316Z,68.94
2018-01-02T23:39:45.085Z,69.17
2018-01-02T23:42:11.391Z,69.59
2018-01-02T23:44:37.637Z,69.69
2018-01-02T23:47:03.879Z,69.81
2018-01-02T23:49:30.115Z,69.89
2018-01-02T23:51:56.453Z,69.61
2018-01-02T23:54:22.778Z,69.15
2018-01-02T23:56:49.039Z,68.59
2018-01-02T23:59:15.625Z,68.10
